Crooked Creek Research Lab Weather observations

Data are for 10 minute period ending at time listed.
 Day   Time    Ave.   Ave.  Ave.  Vector   Max.   Stn.    Total    Solar   Ave.   Snow 
  of    of     Air    Rel.  Wind   Wind    Wind   Baro.  Precip.   Rad.    Soil   Depth
Year   Day     Temp.  Hum.  Speed  Dir.    Gust   Pres.                    Temp.       
2016   (PST)    F      %     mph   deg.    mph     mb.     in.     W/m2     F      in. 
---------------------------------------------------------------------------------------  
 269   21:10   46.5    31    1.6    60      3.9   712.2    0.00       0    999.0    -0.8
 269   21:20   44.4    33    0.8    41      3.4   712.2    0.00       0    999.0    -0.8
 269   21:30   42.6    35    0.5    39      1.9   712.2    0.00       0    999.0    -0.8
 269   21:40   41.5    36    0.7   340      5.0   712.2    0.00       0    999.0    -0.7
 269   21:50   41.2    36    0.3   273      1.2   712.2    0.00       0    999.0    -0.8
 269   22:00   39.7    38    0.3   178      2.2   712.1    0.00       0    999.0    -0.8
 269   22:10   40.5    38    1.0    86      2.9   712.0    0.00       0    999.0    -0.7
 269   22:20   40.8    37    1.1   102      3.6   712.0    0.00       0    999.0    -0.7
 269   22:30   43.5    35    4.1    39      9.3   712.1    0.00       0    999.0    -0.4
 269   22:40   46.3    32    3.8    41      8.3   712.0    0.00       0    999.0    -0.6
 269   22:50   46.9    32    3.8    32      9.4   712.0    0.00       0    999.0    -0.6
 269   23:00   46.9    32    2.5    30      7.9   712.0    0.00       0    999.0    -0.7
 269   23:10   44.6    34    0.4     4      3.1   711.9    0.00       0    999.0    -0.9
 269   23:20   42.2    37    0.8     6      3.9   712.0    0.00       0    999.0    -0.8
 269   23:30   41.8    37    1.4    37      4.4   711.8    0.00       0    999.0    -0.6
 269   23:40   42.4    36    1.2    43      5.0   712.0    0.00       0    999.0    -0.6
 269   23:50   42.5    36    1.2    52      3.6   711.7    0.00       0    999.0    -0.7
 270    0:00   42.6    36    1.9    92      3.7   711.7    0.00       0    999.0    -0.6
 270    0:10   43.1    35    2.8    85      5.6   711.5    0.00       0    999.0    -0.6
 270    0:20   44.0    34    3.9    81      6.6   711.6    0.00       0    999.0    -0.6
 270    0:30   44.4    34    3.1    85      5.7   711.5    0.00       0    999.0    -0.7
 270    0:40   43.9    35    2.4    82      5.3   711.5    0.00       0    999.0    -0.7
 270    0:50   43.7    36    2.5    81      4.7   711.5    0.00       0    999.0    -0.7
 270    1:00   43.8    37    3.6    96      5.3   711.4    0.00       0    999.0    -0.7
 270    1:10   43.8    37    2.4   104      4.7   711.4    0.00       0    999.0    -0.7
 270    1:20   42.8    39    1.6   109      4.3   711.4    0.00       0    999.0    -0.8
 270    1:30   39.1    44    3.2   115      5.3   711.3    0.00       0    999.0    -0.7
 270    1:40   37.8    46    1.5   206      4.5   711.3    0.00       0    999.0    -0.8
 270    1:50   36.5    47    1.7   141      4.4   711.0    0.00       0    999.0    -0.9
 270    2:00   35.2    51    1.0   153      3.2   710.9    0.00       0    999.0    -0.7
 270    2:10   35.8    51    0.5   146      3.0   710.9    0.00       0    999.0    -0.6
 270    2:20   35.3    51    2.7   128      4.7   711.0    0.00       0    999.0    -0.7
 270    2:30   34.1    53    2.7   122      4.4   710.8    0.00       0    999.0    -0.7
 270    2:40   32.6    55    2.9   127      4.4   710.8    0.00       0    999.0    -0.7
 270    2:50   32.8    56    1.4   154      3.6   710.8    0.00       0    999.0    -0.6
 270    3:00   34.2    54    2.0   136      4.2   710.7    0.00       0    999.0    -0.7
 270    3:10   32.7    56    1.5   140      4.3   710.6    0.00       0    999.0    -0.8
 270    3:20   31.3    58    1.1   149      3.6   710.5    0.00       0    999.0    -0.7
 270    3:30   31.4    58    0.1   189      0.6   710.5    0.00       0    999.0    -0.8
 270    3:40   31.5    58    1.0   139      3.7   710.3    0.00       0    999.0    -0.8
 270    3:50   31.5    58    0.4   340      2.1   710.4    0.00       0    999.0    -0.7
 270    4:00   31.4    58    0.3   360      1.8   710.4    0.00       0    999.0    -0.8
 270    4:10   33.2    55    0.5   182      2.6   710.5    0.00       0    999.0    -0.6
 270    4:20   36.8    48    1.5   116      5.0   710.5    0.00       0    999.0    -0.4
 270    4:30   41.3    41    3.4    93      6.1   710.3    0.00       0    999.0    -0.6
 270    4:40   44.9    36    3.1    81      7.6   710.3    0.00       0    999.0    -0.6
 270    4:50   44.3    36    1.0   120      2.6   710.5    0.00       0    999.0    -0.8
 270    5:00   44.1    36    3.2    92      5.9   710.5    0.00       0    999.0    -0.7
 270    5:10   44.4    35    3.5    96      5.9   710.6    0.00       0    999.0    -0.6
 270    5:20   44.0    35    1.5    99      4.8   710.6    0.00       0    999.0    -0.9
 270    5:30   40.0    40    1.9   120      4.7   710.5    0.00       1    999.0    -0.9
 270    5:40   37.8    44    1.0   197      3.4   710.7    0.00       2    999.0    -0.9
 270    5:50   36.3    46    0.4   162      2.8   710.6    0.00       5    999.0    -0.8
 270    6:00   34.1    50    1.1   173      4.3   710.6    0.00       7    999.0    -0.9
 270    6:10   35.0    49    1.5   137      3.7   710.7    0.00       9    999.0    -0.7
 270    6:20   35.2    48    0.5   230      2.5   710.5    0.00      11    999.0    -0.8
 270    6:30   35.2    49    1.3   235      3.8   710.6    0.00      12    999.0    -0.7
 270    6:40   37.3    46    1.2   138      4.1   710.7    0.00      14    999.0    -0.7
 270    6:50   42.2    39    2.5    80      4.7   710.6    0.00      15    999.0    -0.6
 270    7:00   45.8    34    3.2    77      7.8   710.7    0.00      16    999.0    -0.6
 270    7:10   47.5    33    3.6    77      8.4   710.7    0.00      55    999.0    -0.7
 270    7:20   49.7    30    3.5    70      7.1   710.7    0.00     304    999.0    -0.8
 270    7:30   51.2    29    4.2    73      7.8   710.8    0.00     337    999.0    -0.8
 270    7:40   52.3    28    3.6    67      8.2   711.0    0.00     370    999.0    -0.8
 270    7:50   53.2    27    4.3    54      7.8   711.1    0.00     402    999.0    -0.9
 270    8:00   53.7    27    3.4    73      8.3   711.1    0.00     432    999.0    -0.9
 270    8:10   54.2    26    3.5    44     10.0   711.3    0.00     462    999.0    -0.8
 270    8:20   53.8    26    4.5    42      9.6   711.3    0.00     492    999.0    -0.8
 270    8:30   54.7    25    4.4    61      8.3   711.3    0.00     521    999.0    -0.8
 270    8:40   54.6    25    4.0    67      8.4   711.5    0.00     549    999.0    -0.8
 270    8:50   54.8    25    4.0    32     10.6   711.5    0.00     575    999.0    -0.8
 270    9:00   55.1    25    4.4    19      9.7   711.3    0.00     599    999.0    -0.7
 270    9:10   55.8    25    4.2    87     10.3   711.4    0.00     623    999.0    -0.7
 270    9:20   57.0    24    3.4    42      8.6   711.4    0.00     646    999.0    -0.7
 270    9:30   56.7    24    2.9    32      6.4   711.4    0.00     668    999.0    -0.8
 270    9:40   57.1    24    3.0   112      6.6   711.4    0.00     687    999.0    -0.8
 270    9:50   56.9    24    3.6    94      8.6   711.3    0.00     706    999.0    -0.7
 270   10:00   57.4    23    3.2    80      8.0   711.3    0.00     723    999.0    -0.7
 270   10:10   57.2    24    3.8    10      9.6   711.3    0.00     738    999.0    -0.7
 270   10:20   57.6    24    4.4    11      9.5   711.2    0.00     752    999.0    -0.7
 270   10:30   57.7    25    4.4    50      9.3   711.0    0.00     765    999.0    -0.7
 270   10:40   58.5    24    3.1    68      7.5   711.2    0.00     776    999.0    -0.7
 270   10:50   58.7    24    3.6    56      8.3   711.2    0.00     784    999.0    -0.8
 270   11:00   58.0    25    3.5    27      8.8   711.1    0.00     791    999.0    -0.9
 270   11:10   58.7    24    2.9    48      7.0   711.0    0.00     798    999.0    -0.7
 270   11:20   59.6    24    4.4    42      9.6   711.0    0.00     802    999.0    -0.8
 270   11:30   58.6    25    3.2    51      7.3   711.0    0.00     804    999.0    -0.8
 270   11:40   59.5    24    3.5    66      7.5   710.9    0.00     805    999.0    -0.7
 270   11:50   60.8    23    3.3    18      9.8   710.8    0.00     804    999.0    -0.8
 270   12:00   60.3    24    4.6    38      8.1   710.8    0.00     801    999.0    -0.7
 270   12:10   59.5    24    3.9   357      8.7   710.8    0.00     796    999.0    -0.6
 270   12:20   60.3    24    3.8    16     11.1   710.6    0.00     790    999.0    -0.8
 270   12:30   60.2    24    4.4    37      9.6   710.6    0.00     782    999.0    -0.9
 270   12:40   60.5    24    3.4   112      7.9   710.6    0.00     773    999.0    -0.7
 270   12:50   60.4    24    2.7    34      8.6   710.5    0.00     763    999.0    -0.7
 270   13:00   60.9    23    3.0    81      7.3   710.5    0.00     751    999.0    -0.7
 270   13:10   61.1    23    4.4   102     11.5   710.4    0.00     736    999.0    -0.8
 270   13:20   59.6    24    5.4    30     14.4   710.3    0.00     720    999.0    -0.7
 270   13:30   60.6    23    5.3    33     12.3   710.3    0.00     703    999.0    -0.6
 270   13:40   60.9    23    4.3    34     11.8   710.3    0.00     684    999.0    -0.6
 270   13:50   60.7    23    4.8    23     10.7   710.3    0.00     664    999.0    -0.8
 270   14:00   60.3    23    3.9     7     12.2   710.2    0.00     643    999.0    -0.7
 270   14:10   60.6    22    4.4    44     11.5   710.2    0.00     620    999.0    -0.7
 270   14:20   59.8    23    5.4    11     10.4   710.2    0.00     596    999.0    -0.7
 270   14:30   60.0    22    3.7    97     10.7   710.0    0.00     571    999.0    -0.7
 270   14:40   60.3    21    3.6    68     10.0   710.0    0.00     545    999.0    -0.8
 270   14:50   61.0    21    2.9    69      7.4   709.9    0.00     517    999.0    -0.7
 270   15:00   60.6    21    4.0    41      9.0   709.9    0.00     489    999.0    -0.8
 270   15:10   59.7    22    4.0   112      7.8   709.9    0.00     459    999.0    -0.7
 270   15:20   60.8    21    3.2    74      7.3   709.8    0.00     429    999.0    -0.7
 270   15:30   60.7    21    3.5    18      8.6   709.7    0.00     397    999.0    -0.8
 270   15:40   59.7    22    3.9    63      7.8   709.7    0.00     365    999.0    -0.8
 270   15:50   59.4    22    3.9     9      8.9   709.7    0.00     333    999.0    -0.7
 270   16:00   59.0    23    3.4    13      8.2   709.7    0.00     300    999.0    -0.7
 270   16:10   59.0    22    3.8    79      8.2   709.6    0.00     267    999.0    -0.7
 270   16:20   58.5    23    3.3    24      7.1   709.5    0.00     234    999.0    -0.8
 270   16:30   57.6    23    4.6    18      8.7   709.5    0.00     202    999.0    -0.8
 270   16:40   57.5    23    3.0    24      6.4   709.5    0.00     170    999.0    -0.8
 270   16:50   57.2    23    2.8    16      6.1   709.6    0.00     140    999.0    -0.8
 270   17:00   56.6    24    2.4    14      5.9   709.5    0.00      83    999.0    -0.9
 270   17:10   54.2    26    2.9    20      5.6   709.5    0.00      11    999.0    -0.7
 270   17:20   53.0    27    2.2    13      4.7   709.5    0.00       8    999.0    -0.7
 270   17:30   52.0    28    1.9    13      3.9   709.5    0.00       6    999.0    -0.7
 270   17:40   49.5    30    1.3   331      2.9   709.3    0.00       4    999.0    -0.9
 270   17:50   48.1    32    0.2   100      1.6   709.3    0.00       2    999.0    -0.7
 270   18:00   47.2    32    0.0   107      0.7   709.3    0.00       0    999.0    -0.8
 270   18:10   44.8    34    1.0   259      3.3   709.4    0.00       0    999.0    -0.8
 270   18:20   43.1    36    0.6   220      2.2   709.4    0.00       0    999.0    -0.7
 270   18:30   42.1    37    0.5   230      1.9   709.3    0.00       0    999.0    -0.7
 270   18:40   41.7    38    0.3   232      1.5   709.4    0.00       0    999.0    -0.7
 270   18:50   41.0    38    0.2   236      2.0   709.4    0.00       0    999.0    -0.7
 270   19:00   40.7    39    0.7   163      2.4   709.4    0.00       0    999.0    -0.7
 270   19:10   39.8    40    0.2   134      1.4   709.3    0.00       0    999.0    -0.7
 270   19:20   38.9    40    0.5   134      2.1   709.5    0.00       0    999.0    -0.7
 270   19:30   38.2    42    0.2   134      1.2   709.5    0.00       0    999.0    -0.6
 270   19:40   37.6    42    0.6   167      2.2   709.6    0.00       0    999.0    -0.7
 270   19:50   37.4    43    0.8   172      2.0   709.5    0.00       0    999.0    -0.6
 270   20:00   37.3    44    0.5   191      2.2   709.4    0.00       0    999.0    -0.6
 270   20:10   37.0    44    0.0   217      0.1   709.5    0.00       0    999.0    -0.7
 270   20:20   36.3    45    1.0   217      2.7   709.5    0.00       0    999.0    -0.7
 270   20:30   36.1    46    0.1   224      0.9   709.6    0.00       0    999.0    -0.7
 270   20:40   35.5    46    0.7   162      2.6   709.4    0.00       0    999.0    -0.8
 270   20:50   35.8    47    0.9   130      3.0   709.4    0.00       0    999.0    -0.6
 270   21:00   35.8    47    0.7   126      2.9   709.3    0.00       0    999.0    -0.7

Return to Crooked Creek Research Lab graphs page.


Western Regional Climate Center,wrcc@dri.edu